createdAt,value
2023-02-23T00:01:33.603Z,52.32
2023-02-23T00:04:07.355Z,52.56
2023-02-23T00:06:41.485Z,52.61
2023-02-23T00:09:23.628Z,52.63
2023-02-23T00:11:58.940Z,52.38
2023-02-23T00:14:32.782Z,52.40
2023-02-23T00:17:11.122Z,52.61
2023-02-23T00:19:45.192Z,52.84
2023-02-23T00:22:18.716Z,52.64
2023-02-23T00:24:52.511Z,52.67
2023-02-23T00:27:26.143Z,52.86
2023-02-23T00:29:59.645Z,52.91
2023-02-23T00:32:33.390Z,53.03
2023-02-23T00:35:12.003Z,53.10
2023-02-23T00:37:46.769Z,53.18
2023-02-23T00:40:24.544Z,53.26
2023-02-23T00:42:58.799Z,53.33
2023-02-23T00:45:34.378Z,53.34
2023-02-23T00:48:11.023Z,53.49
2023-02-23T00:50:46.389Z,53.53
2023-02-23T00:53:20.274Z,53.69
2023-02-23T00:55:54.280Z,53.71
2023-02-23T00:58:28.978Z,53.78
2023-02-23T01:01:02.971Z,53.97
2023-02-23T01:03:36.417Z,53.82
2023-02-23T01:06:14.029Z,53.98
2023-02-23T01:08:50.336Z,54.12
2023-02-23T01:11:31.288Z,54.15
2023-02-23T01:14:05.554Z,54.32
2023-02-23T01:16:40.117Z,54.41
2023-02-23T01:19:14.891Z,54.46
2023-02-23T01:21:48.887Z,54.49
2023-02-23T01:24:22.516Z,54.63
2023-02-23T01:26:56.512Z,54.73
2023-02-23T01:29:30.485Z,54.75
2023-02-23T01:32:05.023Z,54.92
2023-02-23T01:34:39.043Z,54.89
2023-02-23T01:37:12.658Z,55.10
2023-02-23T01:39:46.148Z,55.25
2023-02-23T01:42:19.516Z,55.31
2023-02-23T01:45:24.249Z,55.48
2023-02-23T01:48:02.743Z,55.48
2023-02-23T01:50:44.440Z,55.47
2023-02-23T01:53:22.167Z,55.45
2023-02-23T01:55:59.381Z,55.65
2023-02-23T01:58:35.041Z,55.80
2023-02-23T02:01:09.210Z,55.80
2023-02-23T02:03:45.975Z,55.92
2023-02-23T02:06:23.837Z,56.02
2023-02-23T02:09:06.704Z,56.19
2023-02-23T02:11:45.033Z,56.24
2023-02-23T02:14:24.046Z,56.32
2023-02-23T02:17:25.817Z,56.48
2023-02-23T02:20:33.413Z,56.52
2023-02-23T02:23:36.984Z,56.78
2023-02-23T02:26:21.983Z,56.99
2023-02-23T02:29:18.736Z,57.07
2023-02-23T02:32:35.367Z,57.04
2023-02-23T02:35:34.859Z,57.26
2023-02-23T02:38:27.826Z,57.41
2023-02-23T02:41:12.406Z,57.57
2023-02-23T02:43:57.983Z,57.67
2023-02-23T02:46:37.215Z,57.90
2023-02-23T02:49:18.831Z,57.98
2023-02-23T02:51:58.666Z,58.13
2023-02-23T02:54:39.416Z,58.11
2023-02-23T02:57:15.357Z,58.06
2023-02-23T03:00:07.896Z,58.15
2023-02-23T03:03:01.222Z,58.29
2023-02-23T03:06:04.770Z,58.31
2023-02-23T03:09:04.048Z,58.37
2023-02-23T03:11:59.009Z,58.37
2023-02-23T03:14:58.684Z,58.30
2023-02-23T03:18:01.320Z,58.43
2023-02-23T03:21:02.124Z,58.63
2023-02-23T03:24:03.024Z,58.93
2023-02-23T03:27:00.213Z,58.97
2023-02-23T03:29:56.600Z,59.18
2023-02-23T03:32:54.196Z,59.38
2023-02-23T03:35:51.170Z,59.61
2023-02-23T03:38:52.156Z,59.58
2023-02-23T03:41:45.920Z,59.75
2023-02-23T03:44:44.054Z,59.98
2023-02-23T03:47:37.729Z,60.15
2023-02-23T03:50:36.356Z,60.11
2023-02-23T03:53:29.511Z,60.29
2023-02-23T03:56:23.417Z,60.32
2023-02-23T03:59:18.133Z,60.40
2023-02-23T04:02:14.456Z,60.64
2023-02-23T04:05:07.792Z,60.59
2023-02-23T04:08:01.164Z,60.74
2023-02-23T04:10:54.656Z,60.90
2023-02-23T04:13:31.743Z,60.89
2023-02-23T04:16:07.282Z,61.16
2023-02-23T04:18:42.965Z,61.22
2023-02-23T04:21:16.426Z,61.30
2023-02-23T04:23:50.423Z,61.46
2023-02-23T04:26:24.284Z,61.55
2023-02-23T04:28:58.065Z,61.76
2023-02-23T04:31:32.133Z,62.07
2023-02-23T04:34:06.341Z,62.14
2023-02-23T04:36:41.028Z,62.11
2023-02-23T04:39:14.702Z,62.34
2023-02-23T04:41:49.164Z,62.36
2023-02-23T04:44:22.975Z,62.39
2023-02-23T04:46:57.872Z,62.59
2023-02-23T04:49:48.939Z,62.68
2023-02-23T04:52:22.583Z,62.76
2023-02-23T04:54:56.412Z,62.86
2023-02-23T04:57:30.734Z,62.85
2023-02-23T05:00:05.525Z,62.88
2023-02-23T05:02:39.009Z,62.90
2023-02-23T05:05:13.391Z,62.89
2023-02-23T05:07:46.772Z,63.21
2023-02-23T05:10:20.969Z,63.25
2023-02-23T05:12:55.293Z,63.34
2023-02-23T05:15:29.141Z,63.27
2023-02-23T05:18:02.647Z,63.33
2023-02-23T05:20:36.127Z,63.37
2023-02-23T05:23:10.178Z,63.32
2023-02-23T05:25:43.866Z,63.55
2023-02-23T05:28:17.780Z,63.72
2023-02-23T05:30:51.400Z,63.70
2023-02-23T05:33:25.297Z,63.87
2023-02-23T05:35:59.184Z,64.11
2023-02-23T05:38:33.276Z,64.09
2023-02-23T05:41:10.919Z,64.02
2023-02-23T05:43:44.541Z,64.04
2023-02-23T05:46:21.913Z,64.07
2023-02-23T05:48:59.491Z,64.18
2023-02-23T05:51:34.457Z,64.18
2023-02-23T05:54:08.528Z,64.21
2023-02-23T05:56:42.441Z,64.24
2023-02-23T05:59:17.642Z,64.17
2023-02-23T06:01:51.708Z,64.20
2023-02-23T06:04:25.268Z,64.42
2023-02-23T06:06:59.370Z,64.57
2023-02-23T06:09:33.328Z,64.45
2023-02-23T06:12:07.977Z,64.53
2023-02-23T06:14:41.844Z,64.49
2023-02-23T06:17:15.509Z,64.42
2023-02-23T06:19:49.324Z,64.29
2023-02-23T06:22:23.374Z,64.17
2023-02-23T06:24:57.399Z,64.18
2023-02-23T06:27:30.845Z,64.12
2023-02-23T06:30:04.478Z,64.15
2023-02-23T06:32:38.525Z,64.00
2023-02-23T06:35:15.625Z,63.99
2023-02-23T06:37:49.294Z,63.93
2023-02-23T06:40:23.739Z,63.60
2023-02-23T06:42:57.770Z,63.35
2023-02-23T06:45:32.149Z,63.23
2023-02-23T06:48:06.026Z,63.23
2023-02-23T06:50:39.622Z,63.17
2023-02-23T06:53:13.139Z,62.90
2023-02-23T06:55:46.694Z,62.77
2023-02-23T06:58:20.646Z,62.66
2023-02-23T07:00:56.704Z,62.26
2023-02-23T07:03:30.470Z,61.89
2023-02-23T07:06:06.060Z,61.69
2023-02-23T07:08:39.720Z,61.88
2023-02-23T07:11:16.065Z,61.51
2023-02-23T07:13:49.765Z,61.35
2023-02-23T07:16:24.601Z,60.95
2023-02-23T07:18:58.550Z,61.04
2023-02-23T07:21:33.642Z,61.14
2023-02-23T07:24:07.817Z,60.93
2023-02-23T07:26:44.112Z,60.91
2023-02-23T07:29:18.601Z,60.26
2023-02-23T07:31:52.444Z,59.87
2023-02-23T07:34:26.213Z,59.78
2023-02-23T07:36:59.834Z,60.34
2023-02-23T07:39:33.984Z,60.26
2023-02-23T07:42:08.170Z,60.13
2023-02-23T07:44:41.920Z,59.81
2023-02-23T07:47:15.509Z,59.20
2023-02-23T07:49:49.351Z,59.46
2023-02-23T07:52:23.531Z,59.21
2023-02-23T07:54:58.088Z,58.94
2023-02-23T07:57:31.698Z,58.96
2023-02-23T08:00:06.683Z,58.18
2023-02-23T08:02:46.813Z,58.24
2023-02-23T08:05:20.656Z,57.61
2023-02-23T08:07:54.448Z,57.21
2023-02-23T08:10:28.278Z,56.31
2023-02-23T08:13:03.122Z,56.77
2023-02-23T08:15:37.221Z,56.44
2023-02-23T08:18:11.754Z,55.15
2023-02-23T08:20:45.820Z,54.51
2023-02-23T08:23:19.765Z,53.67
2023-02-23T08:25:54.750Z,53.30
2023-02-23T08:28:28.404Z,52.77
2023-02-23T08:31:02.154Z,53.16
2023-02-23T08:33:36.690Z,53.74
2023-02-23T08:36:11.414Z,53.83
2023-02-23T08:38:45.219Z,54.33
2023-02-23T08:41:19.306Z,54.12
2023-02-23T08:43:53.153Z,53.46
2023-02-23T08:46:27.072Z,53.56
2023-02-23T08:49:01.308Z,53.54
2023-02-23T08:51:36.008Z,53.21
2023-02-23T08:54:15.204Z,53.69
2023-02-23T08:56:49.304Z,53.79
2023-02-23T08:59:23.243Z,53.92
2023-02-23T09:02:16.260Z,53.77
2023-02-23T09:04:50.595Z,53.86
2023-02-23T09:07:25.334Z,53.06
2023-02-23T09:10:00.002Z,53.45
2023-02-23T09:12:33.840Z,53.60
2023-02-23T09:15:08.743Z,54.19
2023-02-23T09:17:45.194Z,52.65
2023-02-23T09:20:20.176Z,52.93
2023-02-23T09:22:53.878Z,53.00
2023-02-23T09:25:29.592Z,53.39
2023-02-23T09:28:03.323Z,52.91
2023-02-23T09:30:37.647Z,52.58
2023-02-23T09:33:11.445Z,52.72
2023-02-23T09:35:45.234Z,52.65
2023-02-23T09:38:19.324Z,52.50
2023-02-23T09:40:55.397Z,52.65
2023-02-23T09:43:37.978Z,52.60
2023-02-23T09:46:24.112Z,52.45
2023-02-23T09:49:02.869Z,52.61
2023-02-23T09:51:43.453Z,52.31
2023-02-23T09:54:19.653Z,52.24
2023-02-23T09:56:56.640Z,52.43
2023-02-23T09:59:31.325Z,52.95
2023-02-23T10:02:15.273Z,53.04
2023-02-23T10:04:51.391Z,53.46
2023-02-23T10:07:36.765Z,53.17
2023-02-23T10:10:23.691Z,53.01
2023-02-23T10:13:10.117Z,52.76
2023-02-23T10:15:51.982Z,52.99
2023-02-23T10:18:46.175Z,53.08
2023-02-23T10:21:30.054Z,52.77
2023-02-23T10:24:09.566Z,52.91
2023-02-23T10:26:49.467Z,52.81
2023-02-23T10:29:28.856Z,53.08
2023-02-23T10:32:07.539Z,52.82
2023-02-23T10:34:42.929Z,52.75
2023-02-23T10:37:18.933Z,52.76
2023-02-23T10:39:53.096Z,52.81
2023-02-23T10:42:30.338Z,52.47
2023-02-23T10:45:04.463Z,51.75
2023-02-23T10:47:39.718Z,51.67
2023-02-23T10:50:15.296Z,52.14
2023-02-23T10:52:52.929Z,52.02
2023-02-23T10:55:30.363Z,51.49
2023-02-23T10:58:17.262Z,51.77
2023-02-23T11:00:59.171Z,52.22
2023-02-23T11:03:37.935Z,49.98
2023-02-23T11:06:29.002Z,50.29
2023-02-23T11:09:18.364Z,50.73
2023-02-23T11:12:03.082Z,50.23
2023-02-23T11:14:37.303Z,49.11
2023-02-23T11:17:28.783Z,49.50
2023-02-23T11:20:08.612Z,49.89
2023-02-23T11:22:44.861Z,49.25
2023-02-23T11:25:36.300Z,48.74
2023-02-23T11:28:18.883Z,48.74
2023-02-23T11:30:53.252Z,49.40
2023-02-23T11:33:31.846Z,49.54
2023-02-23T11:36:27.810Z,48.91
2023-02-23T11:39:22.419Z,48.61
2023-02-23T11:42:18.322Z,48.87
2023-02-23T11:45:07.744Z,48.22
2023-02-23T11:47:49.653Z,48.64
2023-02-23T11:50:33.089Z,48.52
2023-02-23T11:53:14.089Z,48.21
2023-02-23T11:55:55.242Z,48.16
2023-02-23T11:58:36.188Z,47.98
2023-02-23T12:01:13.835Z,47.94
2023-02-23T12:03:51.737Z,47.48
2023-02-23T12:06:34.338Z,47.66
2023-02-23T12:09:21.390Z,48.02
2023-02-23T12:12:00.863Z,47.83
2023-02-23T12:14:41.779Z,48.25
2023-02-23T12:17:23.530Z,47.58
2023-02-23T12:20:02.109Z,47.36
2023-02-23T12:22:36.629Z,48.05
2023-02-23T12:25:23.527Z,48.86
2023-02-23T12:28:18.100Z,48.07
2023-02-23T12:30:57.649Z,48.20
2023-02-23T12:33:40.182Z,48.32
2023-02-23T12:36:26.881Z,48.05
2023-02-23T12:39:06.295Z,47.16
2023-02-23T12:41:45.486Z,47.71
2023-02-23T12:44:32.300Z,47.80
2023-02-23T12:47:16.687Z,48.25
2023-02-23T12:49:58.399Z,48.12
2023-02-23T12:52:37.525Z,47.54
2023-02-23T12:55:14.248Z,47.92
2023-02-23T12:57:57.223Z,47.74
2023-02-23T13:00:48.945Z,47.57
2023-02-23T13:03:46.537Z,47.68
2023-02-23T13:06:30.900Z,47.49
2023-02-23T13:09:17.947Z,48.15
2023-02-23T13:12:08.084Z,48.30
2023-02-23T13:14:49.210Z,48.45
2023-02-23T13:17:36.293Z,49.07
2023-02-23T13:20:18.065Z,48.79
2023-02-23T13:23:00.635Z,48.49
2023-02-23T13:25:44.291Z,48.49
2023-02-23T13:28:23.633Z,48.50
2023-02-23T13:30:58.329Z,49.31
2023-02-23T13:33:43.515Z,49.48
2023-02-23T13:36:18.342Z,49.11
2023-02-23T13:39:18.621Z,49.44
2023-02-23T13:42:07.190Z,49.34
2023-02-23T13:44:46.234Z,49.50
2023-02-23T13:47:35.114Z,49.80
2023-02-23T13:50:22.096Z,49.22
2023-02-23T13:52:58.974Z,49.31
2023-02-23T13:55:53.853Z,49.47
2023-02-23T13:58:31.622Z,49.80
2023-02-23T14:01:16.351Z,49.74
2023-02-23T14:03:59.325Z,50.26
2023-02-23T14:06:35.625Z,50.24
2023-02-23T14:09:21.888Z,50.42
2023-02-23T14:12:07.585Z,50.27
2023-02-23T14:14:46.460Z,50.44
2023-02-23T14:17:51.029Z,50.56
2023-02-23T14:20:49.371Z,50.63
2023-02-23T14:23:37.075Z,50.71
2023-02-23T14:26:19.883Z,51.16
2023-02-23T14:29:27.571Z,51.21
2023-02-23T14:32:05.099Z,51.29
2023-02-23T14:34:50.542Z,51.38
2023-02-23T14:37:32.315Z,51.29
2023-02-23T14:40:13.827Z,51.26
2023-02-23T14:42:52.020Z,51.47
2023-02-23T14:45:29.173Z,51.61
2023-02-23T14:48:08.289Z,51.72
2023-02-23T14:50:45.621Z,51.88
2023-02-23T14:53:24.980Z,51.79
2023-02-23T14:56:00.387Z,51.93
2023-02-23T14:58:35.603Z,51.93
2023-02-23T15:01:09.382Z,52.10
2023-02-23T15:03:43.261Z,52.25
2023-02-23T15:06:17.312Z,52.53
2023-02-23T15:08:51.117Z,52.74
2023-02-23T15:11:26.118Z,52.83
2023-02-23T15:14:00.669Z,52.88
2023-02-23T15:16:36.656Z,53.20
2023-02-23T15:19:36.466Z,53.19
2023-02-23T15:22:10.303Z,53.15
2023-02-23T15:24:50.268Z,53.24
2023-02-23T15:27:30.445Z,53.48
2023-02-23T15:30:20.389Z,53.52
2023-02-23T15:33:04.500Z,53.69
2023-02-23T15:35:48.238Z,53.78
2023-02-23T15:38:45.759Z,53.84
2023-02-23T15:41:31.426Z,54.00
2023-02-23T15:44:14.069Z,54.17
2023-02-23T15:46:52.486Z,54.31
2023-02-23T15:49:31.035Z,54.52
2023-02-23T15:52:04.818Z,54.59
2023-02-23T15:54:47.445Z,54.67
2023-02-23T15:57:29.831Z,54.82
2023-02-23T16:00:11.030Z,54.95
2023-02-23T16:02:47.605Z,55.01
2023-02-23T16:05:32.531Z,55.09
2023-02-23T16:08:23.232Z,55.18
2023-02-23T16:11:04.946Z,55.30
2023-02-23T16:13:40.034Z,55.26
2023-02-23T16:16:19.663Z,55.33
2023-02-23T16:19:02.580Z,55.35
2023-02-23T16:21:42.504Z,55.51
2023-02-23T16:24:22.936Z,55.58
2023-02-23T16:27:06.747Z,55.66
2023-02-23T16:29:43.827Z,55.83
2023-02-23T16:32:25.869Z,55.88
2023-02-23T16:35:04.561Z,55.90
2023-02-23T16:37:57.399Z,56.06
2023-02-23T16:40:33.512Z,56.16
2023-02-23T16:43:07.485Z,56.22
2023-02-23T16:45:44.022Z,56.29
2023-02-23T16:48:22.083Z,56.30
2023-02-23T16:50:58.040Z,56.25
2023-02-23T16:53:31.640Z,56.37
2023-02-23T16:56:14.258Z,56.50
2023-02-23T16:58:53.017Z,56.65
2023-02-23T17:01:25.167Z,56.67
2023-02-23T17:04:00.776Z,56.81
2023-02-23T17:06:36.242Z,56.95
2023-02-23T17:09:10.282Z,57.07
2023-02-23T17:11:47.512Z,57.07
2023-02-23T17:14:28.282Z,57.24
2023-02-23T17:17:03.518Z,57.30
2023-02-23T17:19:39.990Z,57.39
2023-02-23T17:22:16.292Z,57.48
2023-02-23T17:24:50.537Z,57.58
2023-02-23T17:27:25.522Z,57.76
2023-02-23T17:30:02.527Z,57.75
2023-02-23T17:32:39.156Z,57.81
2023-02-23T17:35:15.086Z,58.01
2023-02-23T17:37:51.437Z,58.10
2023-02-23T17:40:35.670Z,58.29
2023-02-23T17:43:14.192Z,58.53
2023-02-23T17:45:50.160Z,58.64
2023-02-23T17:48:28.640Z,58.67
2023-02-23T17:51:06.912Z,58.80
2023-02-23T17:53:43.121Z,59.08
2023-02-23T17:56:25.906Z,59.01
2023-02-23T17:59:02.193Z,59.15
2023-02-23T18:01:50.319Z,59.30
2023-02-23T18:04:25.754Z,59.35
2023-02-23T18:07:06.527Z,59.45
2023-02-23T18:09:44.382Z,59.50
2023-02-23T18:12:24.948Z,59.72
2023-02-23T18:15:04.344Z,59.71
2023-02-23T18:17:42.201Z,59.82
2023-02-23T18:20:22.742Z,59.95
2023-02-23T18:23:01.238Z,60.15
2023-02-23T18:25:41.670Z,60.37
2023-02-23T18:28:21.859Z,60.36
2023-02-23T18:31:00.343Z,60.28
2023-02-23T18:33:39.934Z,60.50
2023-02-23T18:36:27.384Z,60.68
2023-02-23T18:39:05.254Z,60.68
2023-02-23T18:41:42.858Z,61.09
2023-02-23T18:44:23.474Z,61.57
2023-02-23T18:46:59.098Z,61.30
2023-02-23T18:49:35.233Z,61.40
2023-02-23T18:52:10.792Z,61.55
2023-02-23T18:54:49.412Z,61.69
2023-02-23T18:57:28.006Z,62.02
2023-02-23T19:00:08.229Z,61.86
2023-02-23T19:02:47.465Z,62.19
2023-02-23T19:05:31.826Z,62.07
2023-02-23T19:08:15.030Z,62.20
2023-02-23T19:11:04.035Z,62.23
2023-02-23T19:13:43.066Z,62.41
2023-02-23T19:16:36.588Z,62.58
2023-02-23T19:19:15.102Z,62.61
2023-02-23T19:22:00.119Z,62.79
2023-02-23T19:24:41.982Z,62.68
2023-02-23T19:27:24.268Z,62.85
2023-02-23T19:30:07.997Z,62.83
2023-02-23T19:32:47.875Z,62.78
2023-02-23T19:35:26.082Z,62.91
2023-02-23T19:38:04.840Z,63.03
2023-02-23T19:40:44.765Z,63.08
2023-02-23T19:43:20.290Z,62.96
2023-02-23T19:46:00.259Z,63.10
2023-02-23T19:48:39.623Z,63.11
2023-02-23T19:51:21.315Z,63.14
2023-02-23T19:54:00.994Z,63.29
2023-02-23T19:56:39.083Z,63.49
2023-02-23T19:59:16.376Z,63.45
2023-02-23T20:01:55.242Z,63.41
2023-02-23T20:04:32.561Z,63.50
2023-02-23T20:07:12.619Z,63.65
2023-02-23T20:09:51.944Z,63.65
2023-02-23T20:12:33.676Z,63.83
2023-02-23T20:15:11.505Z,63.77
2023-02-23T20:17:49.700Z,63.86
2023-02-23T20:20:26.822Z,64.02
2023-02-23T20:23:11.628Z,64.00
2023-02-23T20:25:50.583Z,63.95
2023-02-23T20:28:28.710Z,63.94
2023-02-23T20:31:14.213Z,64.08
2023-02-23T20:33:51.747Z,64.11
2023-02-23T20:36:29.236Z,64.23
2023-02-23T20:39:11.149Z,64.23
2023-02-23T20:41:55.010Z,64.39
2023-02-23T20:44:44.228Z,64.39
2023-02-23T20:47:22.791Z,64.50
2023-02-23T20:50:02.305Z,64.57
2023-02-23T20:52:47.388Z,64.69
2023-02-23T20:55:27.573Z,64.70
2023-02-23T20:58:05.666Z,64.70
2023-02-23T21:00:50.816Z,64.67
2023-02-23T21:03:38.804Z,64.72
2023-02-23T21:06:16.756Z,64.80
2023-02-23T21:09:13.285Z,64.83
2023-02-23T21:11:49.677Z,64.77
2023-02-23T21:14:25.486Z,64.86
2023-02-23T21:17:02.794Z,64.91
2023-02-23T21:19:37.845Z,64.93
2023-02-23T21:22:17.457Z,65.02
2023-02-23T21:24:52.673Z,65.07
2023-02-23T21:27:30.464Z,65.17
2023-02-23T21:30:06.355Z,65.13
2023-02-23T21:32:44.508Z,65.32
2023-02-23T21:35:20.041Z,65.33
2023-02-23T21:37:59.797Z,65.46
2023-02-23T21:40:34.950Z,65.50
2023-02-23T21:43:10.332Z,65.58
2023-02-23T21:45:47.268Z,65.57
2023-02-23T21:48:22.236Z,65.66
2023-02-23T21:51:04.196Z,65.93
2023-02-23T21:53:40.118Z,65.96
2023-02-23T21:56:15.571Z,65.98
2023-02-23T21:58:51.364Z,66.13
2023-02-23T22:01:28.143Z,66.24
2023-02-23T22:04:02.237Z,66.36
2023-02-23T22:06:39.466Z,66.35
2023-02-23T22:09:16.182Z,66.42
2023-02-23T22:11:50.848Z,66.57
2023-02-23T22:14:24.346Z,66.62
2023-02-23T22:16:58.208Z,66.77
2023-02-23T22:19:31.657Z,66.87
2023-02-23T22:22:05.147Z,66.86
2023-02-23T22:24:39.340Z,66.77
2023-02-23T22:27:14.302Z,66.82
2023-02-23T22:29:47.998Z,66.77
2023-02-23T22:32:21.845Z,66.74
2023-02-23T22:34:55.820Z,66.87
2023-02-23T22:37:30.244Z,66.81
2023-02-23T22:40:12.036Z,66.79
2023-02-23T22:42:49.878Z,66.90
2023-02-23T22:45:23.485Z,66.90
2023-02-23T22:48:02.029Z,66.94
2023-02-23T22:50:33.718Z,67.12
2023-02-23T22:53:08.334Z,67.04
2023-02-23T22:55:47.889Z,67.26
2023-02-23T22:58:23.643Z,67.32
2023-02-23T23:01:07.116Z,67.45
2023-02-23T23:03:42.699Z,67.54
2023-02-23T23:06:18.120Z,67.50
2023-02-23T23:08:54.435Z,67.50
2023-02-23T23:11:30.312Z,67.50
2023-02-23T23:14:07.440Z,67.59
2023-02-23T23:16:48.602Z,67.60
2023-02-23T23:19:25.007Z,67.65
2023-02-23T23:22:00.680Z,67.75
2023-02-23T23:24:34.545Z,67.74
2023-02-23T23:27:08.675Z,67.76
2023-02-23T23:29:46.123Z,67.86
2023-02-23T23:32:28.219Z,67.85
2023-02-23T23:35:02.109Z,67.94
2023-02-23T23:37:36.324Z,67.86
2023-02-23T23:40:16.006Z,67.79
2023-02-23T23:42:49.904Z,67.81
2023-02-23T23:45:25.771Z,67.81
2023-02-23T23:47:59.485Z,67.82
2023-02-23T23:50:33.198Z,67.82
2023-02-23T23:53:08.004Z,67.63
2023-02-23T23:55:41.530Z,67.67
2023-02-23T23:58:18.825Z,67.66
